Time;durP1;ratioP1;P1;durP2;ratioP2;P2;SDS_P1;SDS_P2;PMS_P1;PMS_P2;Temp;Humidity;BMP_temperature;BMP_pressure;BME280_temperature;BME280_humidity;BME280_pressure;Samples;Min_cycle;Max_cycle;Signal;HPM_P1;HPM_P2
2021/12/13 00:02:04;;;;;;;14.02;7.57;;;1.20;64.50;;;;;;5011885;28;20109;-24
2021/12/13 00:04:41;;;;;;;15.45;8.30;;;1.20;64.80;;;;;;4953370;29;20031;-24
2021/12/13 00:07:17;;;;;;;11.80;7.53;;;1.20;64.90;;;;;;4953252;28;20459;-25
2021/12/13 00:09:47;;;;;;;19.10;11.43;;;1.20;65.00;;;;;;4953494;29;20081;-25
2021/12/13 00:12:24;;;;;;;17.83;11.68;;;1.20;64.80;;;;;;4953381;29;20031;-25
2021/12/13 00:14:52;;;;;;;17.88;10.85;;;1.20;64.80;;;;;;4953428;29;20031;-24
2021/12/13 00:17:23;;;;;;;11.65;6.57;;;1.20;65.00;;;;;;4953342;29;20462;-24
2021/12/13 00:19:56;;;;;;;12.90;7.40;;;1.20;64.70;;;;;;4953294;29;20043;-25
2021/12/13 00:22:42;;;;;;;12.32;7.28;;;1.20;65.00;;;;;;4953024;29;20028;-24
2021/12/13 00:25:15;;;;;;;17.58;10.82;;;1.20;64.80;;;;;;4985167;28;20046;-24
2021/12/13 00:27:46;;;;;;;13.80;8.90;;;1.20;65.20;;;;;;4991927;28;20109;-24
2021/12/13 00:30:37;;;;;;;28.38;16.60;;;1.20;65.10;;;;;;4991730;28;20041;-24
2021/12/13 00:33:39;;;;;;;24.58;14.65;;;1.20;65.30;;;;;;4991881;28;20073;-24
2021/12/13 00:36:35;;;;;;;20.33;11.30;;;1.20;65.40;;;;;;4991587;28;20497;-24
2021/12/13 00:39:16;;;;;;;17.67;10.38;;;1.20;65.00;;;;;;5026512;28;20052;-24
2021/12/13 00:41:44;;;;;;;15.48;8.77;;;1.20;64.90;;;;;;5033169;28;20040;-25
2021/12/13 00:44:37;;;;;;;15.00;8.23;;;1.20;65.10;;;;;;5033106;28;20053;-24
2021/12/13 00:47:08;;;;;;;13.57;7.32;;;1.20;65.20;;;;;;5033464;28;20025;-24
2021/12/13 00:49:39;;;;;;;15.93;8.82;;;1.20;65.00;;;;;;5033336;28;20381;-24
2021/12/13 00:52:07;;;;;;;16.25;8.73;;;1.20;65.00;;;;;;5033310;28;20079;-25
2021/12/13 00:54:37;;;;;;;14.85;9.20;;;1.20;65.20;;;;;;5032700;28;20040;-25
2021/12/13 00:57:03;;;;;;;19.02;12.13;;;1.20;65.20;;;;;;5033310;28;20083;-24
2021/12/13 00:59:46;;;;;;;36.00;21.73;;;1.20;65.40;;;;;;5032873;28;20033;-24
2021/12/13 01:02:16;;;;;;;15.45;8.52;;;1.20;65.80;;;;;;5033397;28;20037;-26
2021/12/13 01:05:03;;;;;;;14.18;9.63;;;1.20;65.50;;;;;;5032878;28;20026;-24
2021/12/13 01:08:07;;;;;;;8.88;5.38;;;1.20;65.30;;;;;;5033137;28;20159;-25
2021/12/13 01:10:39;;;;;;;22.52;13.23;;;1.20;65.30;;;;;;5010952;28;20098;-24
2021/12/13 01:13:17;;;;;;;11.48;6.47;;;1.20;65.50;;;;;;5011162;28;20053;-24
2021/12/13 01:16:00;;;;;;;14.93;9.32;;;1.10;65.80;;;;;;5011204;28;20022;-25
2021/12/13 01:18:55;;;;;;;15.85;9.25;;;1.10;65.10;;;;;;5011992;28;20026;-24
2021/12/13 01:21:37;;;;;;;38.33;24.35;;;1.10;65.40;;;;;;5014724;28;20404;-24
2021/12/13 01:24:12;;;;;;;27.83;17.48;;;1.10;65.80;;;;;;5014848;28;20034;-24
2021/12/13 01:26:47;;;;;;;30.23;17.83;;;1.10;67.50;;;;;;5014682;28;20486;-24
2021/12/13 01:29:20;;;;;;;21.98;13.82;;;1.10;67.20;;;;;;5014875;28;20213;-24
2021/12/13 01:32:02;;;;;;;18.30;9.25;;;1.10;66.90;;;;;;5014747;28;20021;-24
2021/12/13 01:34:31;;;;;;;19.65;11.70;;;1.10;66.60;;;;;;5014501;28;20044;-24
2021/12/13 01:37:15;;;;;;;9.90;5.50;;;1.10;66.60;;;;;;5014265;28;20592;-24
2021/12/13 01:39:43;;;;;;;;;;;1.00;66.30;;;;;;5014935;28;20040;-23
2021/12/13 01:42:14;;;;;;;19.15;11.55;;;1.00;67.20;;;;;;5033330;28;19909;-24
2021/12/13 01:44:43;;;;;;;16.02;9.48;;;1.00;66.70;;;;;;5036278;28;20053;-24
2021/12/13 01:47:19;;;;;;;12.57;6.45;;;1.00;66.20;;;;;;5036420;28;20061;-23
2021/12/13 01:49:51;;;;;;;25.25;14.80;;;1.10;66.00;;;;;;5036700;28;20480;-23
2021/12/13 01:52:20;;;;;;;27.10;16.50;;;1.10;66.10;;;;;;5036180;28;20033;-24
2021/12/13 01:54:49;;;;;;;27.73;17.98;;;1.10;66.10;;;;;;5036078;28;20056;-24
2021/12/13 01:57:37;;;;;;;19.25;12.65;;;1.10;66.30;;;;;;5036020;28;20055;-24
2021/12/13 02:00:18;;;;;;;16.10;9.52;;;1.10;66.30;;;;;;5035932;28;20030;-24
2021/12/13 02:02:47;;;;;;;10.27;5.93;;;1.10;66.50;;;;;;5036279;28;20076;-24
2021/12/13 02:05:20;;;;;;;10.60;6.85;;;1.10;66.50;;;;;;5036125;28;20021;-24
2021/12/13 02:07:58;;;;;;;14.35;9.13;;;1.10;66.10;;;;;;5036118;28;20029;-24
2021/12/13 02:10:53;;;;;;;20.50;11.52;;;1.10;66.30;;;;;;5035598;28;20071;-24
2021/12/13 02:13:33;;;;;;;23.92;13.43;;;1.10;66.40;;;;;;5035283;28;20076;-24
2021/12/13 02:18:51;;;;;;;11.10;6.10;;;1.10;66.60;;;;;;5035978;28;20108;-23
2021/12/13 02:21:29;;;;;;;23.83;14.57;;;1.10;67.00;;;;;;5036190;28;20021;-23
2021/12/13 02:24:08;;;;;;;13.30;8.82;;;1.20;66.30;;;;;;5035821;28;20021;-24
2021/12/13 02:26:39;;;;;;;19.55;11.85;;;1.20;66.60;;;;;;5035253;28;20021;-24
2021/12/13 02:29:18;;;;;;;20.83;12.38;;;1.20;66.80;;;;;;5035178;28;20033;-22
2021/12/13 02:31:45;;;;;;;11.75;7.38;;;1.20;66.70;;;;;;5035744;28;20025;-24
2021/12/13 02:34:14;;;;;;;15.07;9.25;;;1.20;66.40;;;;;;5035447;28;20032;-23
2021/12/13 02:36:50;;;;;;;26.55;17.55;;;1.30;67.00;;;;;;5034916;28;20076;-24
2021/12/13 02:39:38;;;;;;;13.88;8.80;;;1.20;68.40;;;;;;5035179;28;20025;-23
2021/12/13 02:42:08;;;;;;;15.88;9.05;;;1.30;68.00;;;;;;5035590;28;20040;-23
2021/12/13 02:44:45;;;;;;;15.27;9.38;;;1.30;67.00;;;;;;5034988;28;20033;-24
2021/12/13 02:47:14;;;;;;;14.00;8.15;;;1.20;66.80;;;;;;5035699;28;20021;-24
2021/12/13 02:49:41;;;;;;;8.60;5.50;;;1.30;67.00;;;;;;5035324;28;20033;-24
2021/12/13 02:52:10;;;;;;;13.82;8.13;;;1.30;66.90;;;;;;5034960;28;20025;-23
2021/12/13 02:54:43;;;;;;;14.57;8.55;;;1.30;66.60;;;;;;5033543;28;20025;-24
2021/12/13 02:57:15;;;;;;;18.38;11.75;;;1.30;66.50;;;;;;5034925;28;20022;-24
2021/12/13 02:59:48;;;;;;;13.82;7.30;;;1.30;66.90;;;;;;5034759;28;20045;-24
2021/12/13 03:02:26;;;;;;;9.50;6.10;;;1.30;66.90;;;;;;5035008;28;20473;-23
2021/12/13 03:04:52;;;;;;;10.80;6.32;;;1.30;66.50;;;;;;5034803;28;20482;-24
2021/12/13 03:07:27;;;;;;;16.50;10.35;;;1.40;66.50;;;;;;5034622;28;20053;-24
2021/12/13 03:09:54;;;;;;;26.10;15.95;;;1.40;66.70;;;;;;5034894;28;20028;-23
2021/12/13 03:12:24;;;;;;;12.32;7.05;;;1.40;66.60;;;;;;5034485;28;20032;-24
2021/12/13 03:15:01;;;;;;;15.30;9.02;;;1.40;66.80;;;;;;5035016;28;20525;-23
2021/12/13 03:17:55;;;;;;;21.65;13.35;;;1.50;66.60;;;;;;5034861;28;20048;-24
2021/12/13 03:20:21;;;;;;;12.50;7.32;;;1.40;67.10;;;;;;5034258;28;20077;-23
2021/12/13 03:23:13;;;;;;;16.25;10.43;;;1.50;66.70;;;;;;5034298;28;20064;-24
2021/12/13 03:26:13;;;;;;;13.80;8.48;;;1.50;66.60;;;;;;5034433;28;20068;-23
2021/12/13 03:29:11;;;;;;;18.08;11.65;;;1.50;66.90;;;;;;5034616;28;20025;-24
2021/12/13 03:31:45;;;;;;;24.83;15.48;;;1.50;66.60;;;;;;5034719;28;20025;-24
2021/12/13 03:34:16;;;;;;;15.77;8.40;;;1.50;67.10;;;;;;5034277;28;20033;-24
2021/12/13 03:37:16;;;;;;;17.20;9.77;;;1.50;66.80;;;;;;5032729;28;20045;-23
2021/12/13 03:39:46;;;;;;;31.25;18.63;;;1.60;66.70;;;;;;5032541;28;20068;-24
2021/12/13 03:42:24;;;;;;;13.25;7.65;;;1.60;67.50;;;;;;5034388;28;20056;-23
2021/12/13 03:44:54;;;;;;;13.93;7.80;;;1.60;67.00;;;;;;5034383;28;20071;-23
2021/12/13 03:47:29;;;;;;;11.10;6.63;;;1.60;67.00;;;;;;5034270;28;20072;-24
2021/12/13 03:50:03;;;;;;;13.48;7.72;;;1.60;66.90;;;;;;5034219;28;20025;-24
2021/12/13 03:52:32;;;;;;;17.65;10.38;;;1.60;66.70;;;;;;5033931;28;20033;-24
2021/12/13 03:55:00;;;;;;;12.70;7.35;;;1.70;67.00;;;;;;5033806;28;20565;-24
2021/12/13 03:57:29;;;;;;;11.00;7.00;;;1.70;67.00;;;;;;5034092;28;20055;-23
2021/12/13 03:59:58;;;;;;;13.98;8.13;;;1.70;67.30;;;;;;5033965;28;20112;-24
2021/12/13 04:02:31;;;;;;;18.75;11.15;;;1.70;67.00;;;;;;5033987;28;20367;-25
2021/12/13 04:05:01;;;;;;;32.03;20.95;;;1.70;66.80;;;;;;5033999;28;20026;-24
2021/12/13 04:07:32;;;;;;;15.18;10.10;;;1.70;67.00;;;;;;5033789;28;20025;-24
2021/12/13 04:10:03;;;;;;;22.55;13.27;;;1.80;67.10;;;;;;5033605;28;20078;-23
2021/12/13 04:12:38;;;;;;;22.92;13.38;;;1.70;66.90;;;;;;5033416;28;20165;-24
2021/12/13 04:15:23;;;;;;;15.32;9.40;;;1.80;66.90;;;;;;5033534;28;20022;-24
2021/12/13 04:20:39;;;;;;;17.45;11.40;;;1.80;67.30;;;;;;5033428;28;20441;-24
2021/12/13 04:23:19;;;;;;;16.05;9.20;;;1.90;67.30;;;;;;5033247;28;20047;-24
2021/12/13 04:25:48;;;;;;;17.42;10.65;;;1.90;67.00;;;;;;5033400;28;20094;-23
2021/12/13 04:28:32;;;;;;;27.25;16.65;;;1.80;67.30;;;;;;5033109;28;20113;-24
2021/12/13 04:31:03;;;;;;;12.13;7.15;;;1.90;67.10;;;;;;5033157;28;20084;-24
2021/12/13 04:33:37;;;;;;;11.93;7.40;;;1.90;67.30;;;;;;5033298;28;20137;-24
2021/12/13 04:36:08;;;;;;;;;;;1.90;67.10;;;;;;5033574;28;20054;-24
2021/12/13 04:38:47;;;;;;;9.40;5.18;;;1.90;67.70;;;;;;5032922;28;19905;-23
2021/12/13 04:41:26;;;;;;;22.45;14.30;;;1.80;67.20;;;;;;5033115;28;20036;-24
2021/12/13 04:44:11;;;;;;;18.05;10.63;;;1.90;67.10;;;;;;5033963;28;20034;-24
2021/12/13 04:46:40;;;;;;;19.92;10.77;;;1.90;67.20;;;;;;5033126;28;20028;-24
2021/12/13 04:49:14;;;;;;;17.80;10.32;;;1.90;67.40;;;;;;5031853;28;20029;-25
2021/12/13 04:51:57;;;;;;;17.85;10.85;;;1.90;67.10;;;;;;5033092;28;20351;-24
2021/12/13 04:54:25;;;;;;;10.65;6.20;;;1.90;67.10;;;;;;5037048;28;20032;-24
2021/12/13 04:56:54;;;;;;;13.13;7.78;;;1.80;67.40;;;;;;5037667;28;20374;-23
2021/12/13 04:59:21;;;;;;;13.80;8.80;;;1.80;67.10;;;;;;5037332;28;20022;-23
2021/12/13 05:01:51;;;;;;;27.88;17.98;;;1.90;67.10;;;;;;5037618;28;20512;-24
2021/12/13 05:04:20;;;;;;;14.15;10.00;;;1.90;67.80;;;;;;5037205;28;20025;-24
2021/12/13 05:06:48;;;;;;;23.73;13.63;;;1.90;67.70;;;;;;5036926;28;20025;-24
2021/12/13 05:09:16;;;;;;;16.90;10.43;;;1.80;67.40;;;;;;5037437;28;20033;-24
2021/12/13 05:12:01;;;;;;;11.95;6.78;;;1.80;67.70;;;;;;5037149;28;20028;-24
2021/12/13 05:14:31;;;;;;;12.73;7.03;;;1.80;67.50;;;;;;5036888;28;20029;-25
2021/12/13 05:17:06;;;;;;;24.83;15.65;;;1.80;67.40;;;;;;5036794;28;20032;-24
2021/12/13 05:19:37;;;;;;;20.10;12.05;;;1.80;67.50;;;;;;5037284;28;20359;-24
2021/12/13 05:22:06;;;;;;;11.30;6.82;;;1.80;67.70;;;;;;5037223;28;20017;-24
2021/12/13 05:24:35;;;;;;;17.73;10.77;;;1.80;67.70;;;;;;5036727;28;20033;-23
2021/12/13 05:27:14;;;;;;;28.63;17.95;;;1.80;67.70;;;;;;5036827;28;20091;-24
2021/12/13 05:29:48;;;;;;;10.32;6.13;;;1.80;67.60;;;;;;5036629;28;20485;-24
2021/12/13 05:32:20;;;;;;;22.08;11.10;;;1.80;67.60;;;;;;5036384;28;20026;-24
2021/12/13 05:34:48;;;;;;;26.25;17.70;;;1.80;67.80;;;;;;5036579;28;20040;-24
2021/12/13 05:37:16;;;;;;;33.53;21.17;;;1.70;67.80;;;;;;5036687;28;20028;-24
2021/12/13 05:40:10;;;;;;;12.68;8.65;;;1.70;68.00;;;;;;5035083;28;20489;-23
2021/12/13 05:42:44;;;;;;;9.55;5.82;;;1.70;67.80;;;;;;5036268;28;20052;-23
2021/12/13 05:45:15;;;;;;;12.90;6.77;;;1.70;67.90;;;;;;5036576;28;20029;-24
2021/12/13 05:47:55;;;;;;;18.40;10.00;;;1.60;67.70;;;;;;5036252;28;20025;-24
2021/12/13 05:50:36;;;;;;;11.80;7.38;;;1.60;67.80;;;;;;5036035;28;20033;-24
2021/12/13 05:53:12;;;;;;;17.25;10.90;;;1.60;67.80;;;;;;5036404;28;20112;-24
2021/12/13 05:56:12;;;;;;;10.07;5.55;;;1.60;68.10;;;;;;5036113;28;20032;-24
2021/12/13 05:58:47;;;;;;;16.00;9.80;;;1.60;68.00;;;;;;5036075;28;20033;-24
2021/12/13 06:01:53;;;;;;;28.90;16.65;;;1.60;68.00;;;;;;5036509;28;20454;-24
2021/12/13 06:04:47;;;;;;;12.15;6.65;;;1.60;69.10;;;;;;5013202;28;20033;-24
2021/12/13 06:07:21;;;;;;;15.52;9.18;;;1.60;68.30;;;;;;5006184;28;20151;-24
2021/12/13 06:09:53;;;;;;;20.52;13.00;;;1.60;68.30;;;;;;5014085;28;20503;-24
2021/12/13 06:12:59;;;;;;;11.20;6.45;;;1.60;68.40;;;;;;4997427;28;20033;-24
2021/12/13 06:15:39;;;;;;;12.93;8.35;;;1.60;67.80;;;;;;4989614;28;20386;-24
2021/12/13 06:18:05;;;;;;;16.02;9.00;;;1.60;68.10;;;;;;5013920;28;20513;-24
2021/12/13 06:20:47;;;;;;;12.98;7.93;;;1.60;68.30;;;;;;5013438;28;20057;-24
2021/12/13 06:23:15;;;;;;;20.15;12.93;;;1.60;68.30;;;;;;5013755;28;20034;-23
2021/12/13 06:25:45;;;;;;;14.18;8.80;;;1.60;68.10;;;;;;5014034;28;20030;-25
2021/12/13 06:28:33;;;;;;;10.02;6.75;;;1.60;68.10;;;;;;5013812;28;20033;-24
2021/12/13 06:31:20;;;;;;;9.98;5.57;;;1.60;68.10;;;;;;5013644;28;20026;-24
2021/12/13 06:34:00;;;;;;;14.40;9.90;;;1.60;68.00;;;;;;5014247;28;20034;-24
2021/12/13 06:36:35;;;;;;;9.68;5.47;;;1.50;68.00;;;;;;5013278;28;20046;-23
2021/12/13 06:39:19;;;;;;;15.25;8.77;;;1.50;68.30;;;;;;5013368;28;20022;-25
2021/12/13 06:42:05;;;;;;;11.48;7.65;;;1.50;68.10;;;;;;5016120;28;20041;-24
2021/12/13 06:44:42;;;;;;;16.65;10.57;;;1.50;68.20;;;;;;5015363;28;21178;-24
2021/12/13 06:47:15;;;;;;;30.42;18.77;;;1.50;68.00;;;;;;5015587;28;20603;-24
2021/12/13 06:49:47;;;;;;;10.73;6.67;;;1.50;68.30;;;;;;5015839;28;20034;-23
2021/12/13 06:52:13;;;;;;;15.73;8.70;;;1.50;68.00;;;;;;5015289;28;20260;-24
2021/12/13 06:55:05;;;;;;;9.48;5.30;;;1.50;68.10;;;;;;5015789;28;20374;-24
2021/12/13 06:57:31;;;;;;;22.55;13.90;;;1.40;68.20;;;;;;5015446;28;20033;-24
2021/12/13 07:00:04;;;;;;;30.23;18.95;;;1.40;69.40;;;;;;5015259;28;20034;-24
2021/12/13 07:02:39;;;;;;;12.20;7.22;;;1.40;68.90;;;;;;5014997;28;20474;-24
2021/12/13 07:05:17;;;;;;;18.33;11.63;;;1.40;69.00;;;;;;5015382;28;20033;-24
2021/12/13 07:07:55;;;;;;;12.38;8.23;;;1.40;69.00;;;;;;5015076;28;20033;-24
2021/12/13 07:10:29;;;;;;;16.08;10.63;;;1.40;68.50;;;;;;5014643;28;20434;-24
2021/12/13 07:13:03;;;;;;;14.20;7.85;;;1.40;68.50;;;;;;5014834;28;20072;-24
2021/12/13 07:15:49;;;;;;;;;;;1.40;68.50;;;;;;5015100;28;20026;-24
2021/12/13 07:18:28;;;;;;;9.88;6.25;;;1.40;68.90;;;;;;5014928;28;19909;-24
2021/12/13 07:21:06;;;;;;;13.38;8.07;;;1.40;68.30;;;;;;5014694;28;20042;-23
2021/12/13 07:24:05;;;;;;;19.27;12.00;;;1.50;68.70;;;;;;5014750;28;20354;-24
2021/12/13 07:26:53;;;;;;;13.50;8.27;;;1.50;68.70;;;;;;5014536;28;20048;-24
2021/12/13 07:29:21;;;;;;;13.75;7.35;;;1.50;68.60;;;;;;5014895;28;20026;-24
2021/12/13 07:32:18;;;;;;;19.23;12.27;;;1.60;68.90;;;;;;5014459;28;20128;-24
2021/12/13 07:34:50;;;;;;;16.33;9.93;;;1.60;68.50;;;;;;5015326;28;20057;-24
2021/12/13 07:37:17;;;;;;;12.50;6.55;;;1.70;68.80;;;;;;5034406;28;20072;-24
2021/12/13 07:39:44;;;;;;;19.38;12.52;;;1.70;68.80;;;;;;5034355;28;20060;-23
2021/12/13 07:42:13;;;;;;;17.73;10.52;;;1.80;68.70;;;;;;5034500;28;20030;-24
2021/12/13 07:44:47;;;;;;;41.40;25.10;;;1.80;68.60;;;;;;5034042;28;20036;-24
2021/12/13 07:47:21;;;;;;;14.63;8.70;;;1.80;69.40;;;;;;5034344;28;20033;-24
2021/12/13 07:49:53;;;;;;;13.52;9.13;;;1.90;69.50;;;;;;5033973;28;20030;-24
2021/12/13 07:52:27;;;;;;;17.40;11.32;;;1.90;69.40;;;;;;5033595;28;20477;-24
2021/12/13 07:54:54;;;;;;;9.00;5.40;;;1.90;69.80;;;;;;5034220;28;20025;-24
2021/12/13 07:57:32;;;;;;;15.55;10.43;;;2.00;69.30;;;;;;5033768;28;20037;-24
2021/12/13 07:59:59;;;;;;;19.60;11.30;;;2.10;68.90;;;;;;5033681;28;20044;-24
2021/12/13 08:02:33;;;;;;;17.38;11.48;;;2.10;68.80;;;;;;5032241;28;20057;-23
2021/12/13 08:05:14;;;;;;;12.13;7.47;;;2.10;68.70;;;;;;5033972;28;20041;-25
2021/12/13 08:07:47;;;;;;;32.15;18.67;;;2.20;68.90;;;;;;5033693;28;20026;-25
2021/12/13 08:10:33;;;;;;;26.08;13.63;;;2.20;69.70;;;;;;5033663;28;20065;-24
2021/12/13 08:13:02;;;;;;;17.73;9.95;;;2.30;69.50;;;;;;5033895;28;20159;-24
2021/12/13 08:15:34;;;;;;;27.23;15.63;;;2.40;69.00;;;;;;5033745;28;20022;-24
2021/12/13 08:18:23;;;;;;;20.15;11.68;;;2.50;68.90;;;;;;5033815;28;20034;-23
2021/12/13 08:21:01;;;;;;;24.15;13.65;;;2.60;68.90;;;;;;5033920;28;20037;-24
2021/12/13 08:23:36;;;;;;;20.20;12.20;;;2.70;68.90;;;;;;5033653;28;20151;-24
2021/12/13 08:26:06;;;;;;;14.85;8.80;;;2.80;68.60;;;;;;5033700;28;20068;-24
2021/12/13 08:28:39;;;;;;;16.70;10.10;;;2.90;68.60;;;;;;5032834;28;20026;-25
2021/12/13 08:31:09;;;;;;;18.95;12.05;;;3.00;68.50;;;;;;5033916;28;20424;-24
2021/12/13 08:33:44;;;;;;;17.25;10.43;;;3.10;68.70;;;;;;5033245;28;20030;-24
2021/12/13 08:36:26;;;;;;;14.88;8.98;;;3.20;68.60;;;;;;5033152;28;20060;-24
2021/12/13 08:39:08;;;;;;;17.25;10.30;;;3.40;68.70;;;;;;5033284;28;20075;-23
2021/12/13 08:41:38;;;;;;;17.63;11.65;;;3.50;68.80;;;;;;5033269;28;20028;-24
2021/12/13 08:44:10;;;;;;;18.73;12.25;;;3.70;69.00;;;;;;5033127;28;20600;-25
2021/12/13 08:46:42;;;;;;;17.65;10.65;;;3.90;69.20;;;;;;5032927;28;20026;-24
2021/12/13 08:49:21;;;;;;;22.05;12.93;;;4.10;69.20;;;;;;5033084;28;20116;-24
2021/12/13 08:52:11;;;;;;;24.52;14.27;;;4.40;69.30;;;;;;5033684;28;20029;-24
2021/12/13 08:54:49;;;;;;;15.40;9.75;;;4.70;69.30;;;;;;5033009;28;20021;-24
2021/12/13 08:57:33;;;;;;;15.80;9.38;;;4.90;69.10;;;;;;5033363;28;20037;-24
2021/12/13 09:00:07;;;;;;;20.70;11.52;;;5.20;69.00;;;;;;5032955;28;20045;-24
2021/12/13 09:02:37;;;;;;;14.93;9.15;;;5.60;68.80;;;;;;5033245;28;20477;-24
2021/12/13 09:05:11;;;;;;;23.20;14.05;;;5.90;68.20;;;;;;5032954;28;20437;-24
2021/12/13 09:07:54;;;;;;;27.55;17.95;;;6.20;68.20;;;;;;5033069;28;20026;-24
2021/12/13 09:10:33;;;;;;;25.77;15.60;;;6.50;67.90;;;;;;5033079;28;20021;-25
2021/12/13 09:12:59;;;;;;;21.27;13.40;;;6.80;67.50;;;;;;5032903;28;20512;-24
2021/12/13 09:15:31;;;;;;;16.17;9.65;;;7.10;67.30;;;;;;5033413;28;20048;-24
2021/12/13 09:17:58;;;;;;;13.55;9.02;;;7.40;67.00;;;;;;5032859;28;20022;-24
2021/12/13 09:20:28;;;;;;;14.40;8.77;;;7.70;66.80;;;;;;5032795;28;20389;-25
2021/12/13 09:23:14;;;;;;;21.75;14.00;;;8.00;66.70;;;;;;5032683;28;20171;-25
2021/12/13 09:26:10;;;;;;;15.48;9.93;;;8.20;66.40;;;;;;5032798;28;20034;-24
2021/12/13 09:29:01;;;;;;;12.77;8.43;;;8.50;66.10;;;;;;5030672;28;20033;-25
2021/12/13 09:31:34;;;;;;;23.48;15.18;;;8.90;65.80;;;;;;5033030;28;20049;-25
2021/12/13 09:34:17;;;;;;;14.20;8.80;;;9.10;65.50;;;;;;5032721;28;20021;-24
2021/12/13 09:36:47;;;;;;;16.45;9.45;;;9.30;65.20;;;;;;5032648;28;20284;-24
2021/12/13 09:39:22;;;;;;;12.95;8.00;;;9.40;65.10;;;;;;5033202;28;20027;-24
2021/12/13 09:42:15;;;;;;;15.05;11.32;;;9.60;65.00;;;;;;5036270;28;20037;-24
2021/12/13 09:45:02;;;;;;;23.52;15.55;;;9.90;65.00;;;;;;5036657;28;20025;-24
2021/12/13 09:47:46;;;;;;;17.58;11.25;;;10.00;64.60;;;;;;5036569;28;20037;-25
2021/12/13 09:50:18;;;;;;;18.35;10.95;;;10.20;64.60;;;;;;5036392;28;20030;-23
2021/12/13 09:52:55;;;;;;;15.18;9.25;;;10.30;64.60;;;;;;5036140;28;20110;-24
2021/12/13 09:55:30;;;;;;;16.35;9.85;;;10.40;64.60;;;;;;5037207;28;20030;-25
2021/12/13 09:58:14;;;;;;;16.85;10.77;;;10.60;64.50;;;;;;5036125;28;20036;-24
2021/12/13 10:00:58;;;;;;;;;;;10.80;64.40;;;;;;5036425;28;20061;-25
2021/12/13 10:03:51;;;;;;;13.27;9.52;;;10.90;64.20;;;;;;5036312;28;19912;-25
2021/12/13 10:06:25;;;;;;;19.23;12.10;;;11.10;64.20;;;;;;5036059;28;20091;-25
2021/12/13 10:08:58;;;;;;;16.00;10.90;;;11.30;63.90;;;;;;5035796;28;20033;-25
2021/12/13 10:11:39;;;;;;;21.40;16.83;;;11.40;63.50;;;;;;5036206;28;20030;-25
2021/12/13 10:14:07;;;;;;;19.48;12.18;;;11.60;62.60;;;;;;5034541;28;20060;-25
2021/12/13 10:16:36;;;;;;;13.82;9.05;;;11.70;62.80;;;;;;5035843;28;20036;-25
2021/12/13 10:19:10;;;;;;;15.43;10.93;;;11.90;63.00;;;;;;5035683;28;20025;-24
2021/12/13 10:21:40;;;;;;;;;;;12.00;62.70;;;;;;5036045;28;20508;-25
2021/12/13 10:24:28;;;;;;;20.17;15.38;;;12.10;56.80;;;;;;5035486;28;19936;-25
2021/12/13 10:26:57;;;;;;;18.02;10.57;;;12.30;61.90;;;;;;5035550;28;20446;-25
2021/12/13 10:29:25;;;;;;;11.80;7.43;;;12.40;61.60;;;;;;5035459;28;20456;-25
2021/12/13 10:31:57;;;;;;;20.90;14.63;;;12.50;61.60;;;;;;5035934;28;20022;-25
2021/12/13 10:34:33;;;;;;;14.05;10.27;;;12.70;60.50;;;;;;5035522;28;20037;-25
2021/12/13 10:37:16;;;;;;;12.98;9.13;;;12.90;60.80;;;;;;5035221;28;20200;-25
2021/12/13 10:39:51;;;;;;;16.90;11.07;;;13.10;60.50;;;;;;5035628;28;20071;-25
2021/12/13 10:42:32;;;;;;;18.17;12.75;;;13.30;60.00;;;;;;5035065;28;20036;-25
2021/12/13 10:45:00;;;;;;;14.30;10.07;;;13.40;59.60;;;;;;5035225;28;20026;-25
2021/12/13 10:47:32;;;;;;;13.32;8.70;;;13.60;59.20;;;;;;5035143;28;20064;-25
2021/12/13 10:50:00;;;;;;;21.48;15.07;;;13.80;58.80;;;;;;5034740;28;20543;-25
2021/12/13 10:52:35;;;;;;;16.88;11.55;;;13.90;58.20;;;;;;5035442;28;20026;-25
2021/12/13 10:55:16;;;;;;;20.02;14.95;;;14.00;57.60;;;;;;5035043;28;20025;-25
2021/12/13 10:57:48;;;;;;;15.05;10.15;;;14.20;57.30;;;;;;5035264;28;20462;-25
2021/12/13 11:00:28;;;;;;;15.90;11.80;;;14.30;57.30;;;;;;5034668;28;20033;-25
2021/12/13 11:03:01;;;;;;;17.08;11.35;;;14.40;56.90;;;;;;5034937;28;20477;-26
2021/12/13 11:05:29;;;;;;;10.02;7.28;;;14.40;56.70;;;;;;5034918;28;20032;-24
2021/12/13 11:07:57;;;;;;;15.60;10.82;;;14.50;56.40;;;;;;5034713;28;20504;-25
2021/12/13 11:10:29;;;;;;;11.55;8.20;;;14.60;56.10;;;;;;5034488;28;20025;-25
2021/12/13 11:12:59;;;;;;;12.85;8.65;;;14.80;55.70;;;;;;5034716;28;20136;-25
2021/12/13 11:15:33;;;;;;;22.27;16.50;;;14.90;55.40;;;;;;5034950;28;20116;-25
2021/12/13 11:18:00;;;;;;;13.07;8.45;;;15.00;54.50;;;;;;5034605;28;20163;-25
2021/12/13 11:20:36;;;;;;;15.25;11.25;;;15.10;54.20;;;;;;5034583;28;20168;-25
2021/12/13 11:23:05;;;;;;;13.75;9.65;;;15.20;53.90;;;;;;5034470;28;20060;-26
2021/12/13 11:25:48;;;;;;;14.77;9.82;;;15.30;53.80;;;;;;5033170;28;20032;-26
2021/12/13 11:28:16;;;;;;;13.65;10.02;;;15.40;53.50;;;;;;5034967;28;20032;-24
2021/12/13 11:30:45;;;;;;;10.57;7.60;;;15.40;53.30;;;;;;5034135;28;20028;-25
2021/12/13 11:33:22;;;;;;;13.57;9.30;;;15.50;53.10;;;;;;5034570;28;20029;-26
2021/12/13 11:36:06;;;;;;;11.90;7.95;;;15.60;53.00;;;;;;5034576;28;20053;-25
2021/12/13 11:39:09;;;;;;;10.95;7.68;;;15.70;52.70;;;;;;5033879;28;20044;-24
2021/12/13 11:42:01;;;;;;;13.57;9.25;;;15.80;52.40;;;;;;5034031;28;20061;-24
2021/12/13 11:44:27;;;;;;;11.90;8.18;;;15.80;52.40;;;;;;5030854;28;20025;-25
2021/12/13 11:47:19;;;;;;;13.43;7.63;;;15.80;52.10;;;;;;5034238;28;20437;-25
2021/12/13 11:50:21;;;;;;;13.23;8.85;;;15.90;51.80;;;;;;5034074;28;20033;-25
2021/12/13 11:52:59;;;;;;;11.30;8.10;;;15.90;51.90;;;;;;5034527;28;20077;-24
2021/12/13 11:55:46;;;;;;;13.15;9.13;;;15.90;51.80;;;;;;5034219;28;20029;-25
2021/12/13 11:58:39;;;;;;;12.55;9.15;;;15.80;51.20;;;;;;5033708;28;20029;-26
2021/12/13 12:01:08;;;;;;;13.23;9.18;;;15.80;51.40;;;;;;5033642;28;20044;-25
2021/12/13 12:04:12;;;;;;;15.77;11.63;;;15.70;51.70;;;;;;5033174;28;20057;-25
2021/12/13 12:07:14;;;;;;;12.23;8.60;;;15.70;50.90;;;;;;5033929;28;20052;-25
2021/12/13 12:10:12;;;;;;;11.50;7.50;;;15.60;50.80;;;;;;5033825;28;20112;-25
2021/12/13 12:12:52;;;;;;;10.15;6.47;;;15.60;51.00;;;;;;5034315;28;20025;-25
2021/12/13 12:15:20;;;;;;;15.18;10.07;;;15.60;51.30;;;;;;5033849;28;20025;-26
2021/12/13 12:17:47;;;;;;;13.32;10.02;;;15.60;51.30;;;;;;5033461;28;20025;-25
2021/12/13 12:20:22;;;;;;;10.23;7.70;;;15.60;50.60;;;;;;5033486;28;20088;-26
2021/12/13 12:22:50;;;;;;;10.25;7.05;;;15.60;50.70;;;;;;5033342;28;20489;-25
2021/12/13 12:25:19;;;;;;;10.55;7.38;;;15.60;50.90;;;;;;5032163;28;20049;-25
2021/12/13 12:27:47;;;;;;;10.38;6.75;;;15.50;51.00;;;;;;5033644;28;20029;-26
2021/12/13 12:30:17;;;;;;;8.98;5.68;;;15.50;51.00;;;;;;5031895;28;20041;-26
2021/12/13 12:32:51;;;;;;;11.10;6.82;;;15.40;50.80;;;;;;5033608;28;20029;-25
2021/12/13 12:35:16;;;;;;;;;;;15.40;51.10;;;;;;5033633;28;20583;-26
2021/12/13 12:38:00;;;;;;;20.08;12.27;;;15.30;47.80;;;;;;5033121;28;19952;-25
2021/12/13 12:40:26;;;;;;;;;;;15.20;49.20;;;;;;5033681;28;20434;-26
2021/12/13 12:43:00;;;;;;;17.95;12.18;;;15.10;50.40;;;;;;5033132;28;20273;-26
2021/12/13 12:45:52;;;;;;;11.77;7.88;;;15.00;50.90;;;;;;5033528;28;20490;-26
2021/12/13 12:48:43;;;;;;;11.52;7.10;;;14.90;50.60;;;;;;5030484;28;20033;-26
2021/12/13 12:51:27;;;;;;;12.13;7.93;;;14.90;51.40;;;;;;5033107;28;20470;-25
2021/12/13 12:54:18;;;;;;;9.18;5.82;;;14.90;51.30;;;;;;5033291;28;20029;-26
2021/12/13 12:56:57;;;;;;;12.73;8.05;;;14.80;51.20;;;;;;5033405;28;20045;-26
2021/12/13 12:59:31;;;;;;;14.05;9.40;;;14.80;51.70;;;;;;5033329;28;20061;-26
2021/12/13 13:02:05;;;;;;;9.35;6.75;;;14.70;51.60;;;;;;5032965;28;20033;-26
2021/12/13 13:04:43;;;;;;;10.77;7.03;;;14.60;51.60;;;;;;5033782;28;20034;-25
2021/12/13 13:07:20;;;;;;;8.98;5.90;;;14.60;51.80;;;;;;5033223;28;20083;-26
2021/12/13 13:09:57;;;;;;;11.18;7.40;;;14.50;51.80;;;;;;5032872;28;20083;-26
2021/12/13 13:12:26;;;;;;;10.52;7.68;;;14.50;52.00;;;;;;5033083;28;20104;-26
2021/12/13 13:14:56;;;;;;;12.65;8.93;;;14.40;52.10;;;;;;5034700;28;20036;-26
2021/12/13 13:17:29;;;;;;;10.88;7.13;;;14.40;52.10;;;;;;5036851;28;20045;-25
2021/12/13 13:20:14;;;;;;;11.20;8.57;;;14.40;52.10;;;;;;5037118;28;20037;-25
2021/12/13 13:22:42;;;;;;;15.85;9.82;;;14.40;51.90;;;;;;5036715;28;20049;-25
2021/12/13 13:25:21;;;;;;;11.07;6.97;;;14.30;52.20;;;;;;5036724;28;20017;-25
2021/12/13 13:27:48;;;;;;;14.75;10.13;;;14.20;52.10;;;;;;5036729;28;20059;-25
2021/12/13 13:30:22;;;;;;;11.95;7.85;;;14.10;52.20;;;;;;5036512;28;20017;-25
2021/12/13 13:32:49;;;;;;;9.48;6.65;;;14.10;52.20;;;;;;5036604;28;20032;-25
2021/12/13 13:35:16;;;;;;;11.98;8.00;;;14.10;52.30;;;;;;5036421;28;20513;-25
2021/12/13 13:37:43;;;;;;;11.15;7.47;;;14.10;52.30;;;;;;5036658;28;20033;-26